Fedora — SLKU — position and weather

sailwx.info

Track history (hours):
 
Tides and Currents Weather Stations Pressure Air Temp Water Temp Dewpoint Dewpoint Depression Visibility Wind Speed Wind Dir Waves Ship Positions

Fedora

Last reported at 2016-May-28 18:24 UTC. Time now 2016-May-29 21:11 UTC.
Position N 49°36' W 010°25'.

Length 228 m; draft 9.3 m.

Type: Cargo ship. MMSI: 266259000.

Date/timePositionNaut miles runAvg speedWind from/ knotsBaromVisibWave heightAir tempDewpointWater temp
2016-May-28 18:24N 49°36' W 010°25'1515.9
2016-May-28 17:26N 49°37' W 010°02'1415.6
2016-May-28 16:33N 49°38' W 009°40'1615.6
2016-May-28 15:33N 49°39' W 009°16'1615.9
2016-May-28 14:33N 49°40' W 008°52'1818.2
2016-May-28 13:33N 49°42' W 008°24'1918.8
2016-May-28 12:33N 49°41' W 007°55'1918.7
2016-May-28 11:33N 49°42' W 007°26'1818.4
2016-May-28 10:33N 49°43' W 006°57'1918.2
2016-May-28 09:32N 49°43' W 006°28'1718.0
2016-May-28 08:33N 49°45' W 006°02'1817.8
2016-May-28 07:32N 49°50' W 005°34'1614.8
2016-May-28 06:28N 49°53' W 005°11'1515.9
2016-May-28 05:33N 49°57' W 004°49'1918.8
2016-May-28 04:33N 50°01' W 004°20'1919.2
2016-May-28 03:33N 50°06' W 003°51'1919.3
2016-May-28 02:33N 50°10' W 003°22'1818.1
2016-May-28 01:33N 50°14' W 002°54'3816.5
2016-May-27 23:16N 50°24' W 001°57'2816.0
2016-May-27 21:33N 50°30' W 001°15'1413.9
2016-May-27 20:34N 50°39' W 000°59'1211.9
2016-May-27 19:33N 50°46' W 001°14'9 9.1
2016-May-27 18:34N 50°53' W 001°24'0 0.1
2016-May-27 16:27N 50°53' W 001°24'0 0.0
2016-May-27 15:24N 50°53' W 001°24'0 0.0
2016-May-27 14:33N 50°53' W 001°24'0 0.0
2016-May-27 12:24N 50°53' W 001°24'0 0.0
2016-May-27 11:30N 50°53' W 001°24'0 0.0
2016-May-27 09:27N 50°53' W 001°24'0 0.0
2016-May-27 07:09N 50°53' W 001°24'0 0.0
2016-May-27 06:31N 50°53' W 001°24'4 3.9
2016-May-27 05:34N 50°50' W 001°19'1111.4
2016-May-27 04:34N 50°44' W 001°04'10 9.7
2016-May-27 03:33N 50°37' W 000°54'6 6.4
2016-May-27 02:33N 50°37' W 000°44'6 6.1
2016-May-27 01:33N 50°36' W 000°35'6 6.1
2016-May-27 00:33N 50°34' W 000°26'7 7.1
2016-May-26 23:33N 50°33' W 000°15'6 6.3
2016-May-26 22:33N 50°31' W 000°05'1312.9
2016-May-26 21:33N 50°35' E 000°14'1414.2
2016-May-26 20:33N 50°39' E 000°36'1715.2
2016-May-26 19:28N 50°48' E 000°57'1414.9
2016-May-26 18:33N 50°57' E 001°14'1413.8
2016-May-26 17:33N 51°06' E 001°30'1212.4
2016-May-26 16:33N 51°14' E 001°45'1212.1
2016-May-26 15:33N 51°24' E 001°56'1312.8
2016-May-26 14:33N 51°34' E 002°09'1413.8
2016-May-26 13:33N 51°45' E 002°23'1514.8
2016-May-26 12:33N 51°56' E 002°39'2015.3
2016-May-26 11:13N 52°12' E 002°60'1015.3
2016-May-26 10:33N 52°20' E 003°09'1514.7
2016-May-26 09:33N 52°32' E 003°23'1413.7
2016-May-26 08:31N 52°43' E 003°38'1313.0
2016-May-26 07:31N 52°53' E 003°51'1312.4
2016-May-26 06:27N 53°03' E 004°07'3712.8
2016-May-26 03:33N 53°30' E 004°49'1515.0
2016-May-26 02:33N 53°35' E 005°12'1414.5
2016-May-26 01:34N 53°40' E 005°35'1413.7
2016-May-26 00:33N 53°44' E 005°57'1313.2
2016-May-25 23:33N 53°48' E 006°18'1312.5
2016-May-25 22:33N 53°51' E 006°39'1212.5
2016-May-25 21:33N 53°54' E 006°59'1313.1
2016-May-25 20:33N 53°58' E 007°21'1212.1
2016-May-25 19:32N 53°57' E 007°42'1312.9
2016-May-25 18:33N 53°51' E 008°01'1616.3
2016-May-25 17:33N 53°41' E 008°22'9 9.3
2016-May-25 16:33N 53°34' E 008°33'0 0.5
2016-May-25 15:33N 53°35' E 008°33'0 0.0
2016-May-25 14:33N 53°35' E 008°33'0 0.0
2016-May-25 13:33N 53°35' E 008°33'0 0.0
2016-May-25 12:33N 53°35' E 008°33'0 0.0
2016-May-25 11:33N 53°35' E 008°33'0 0.0
2016-May-25 10:33N 53°35' E 008°33'0 0.0
2016-May-25 09:33N 53°35' E 008°33'0 0.0
2016-May-25 08:33N 53°35' E 008°33'0 0.0
2016-May-25 07:33N 53°35' E 008°33'0 0.0
2016-May-25 06:33N 53°35' E 008°33'0 0.0
2016-May-25 05:33N 53°35' E 008°33'0 0.0
2016-May-25 04:33N 53°35' E 008°33'0 0.0
2016-May-25 03:33N 53°35' E 008°33'0 0.0
2016-May-25 02:33N 53°35' E 008°33'0 0.0
2016-May-25 01:33N 53°35' E 008°33'0 0.0
2016-May-25 00:33N 53°35' E 008°33'0 0.0
2016-May-24 23:33N 53°35' E 008°33'0 0.0
2016-May-24 22:33N 53°35' E 008°33'0 0.0
2016-May-24 21:33N 53°35' E 008°33'0 0.0
2016-May-24 20:33N 53°35' E 008°33'0 0.0
2016-May-24 19:33N 53°35' E 008°33'0 0.0
2016-May-24 18:33N 53°35' E 008°33'0 0.0
2016-May-24 17:33N 53°35' E 008°33'0 0.0
2016-May-24 16:33N 53°35' E 008°33'0 0.0
2016-May-24 15:33N 53°35' E 008°33'0 0.0
2016-May-24 14:31N 53°35' E 008°33'0 0.0
2016-May-24 13:31N 53°35' E 008°33'0 0.0
2016-May-24 12:31N 53°35' E 008°33'0 0.0
2016-May-24 11:31N 53°35' E 008°33'0 0.5
2016-May-24 10:33N 53°34' E 008°33'8 7.9
2016-May-24 09:33N 53°40' E 008°23'1716.9
2016-May-24 08:33N 53°51' E 008°02'1313.0
2016-May-24 07:33N 53°53' E 007°40'1414.1
2016-May-24 06:33N 53°52' E 007°16'1616.5
2016-May-24 05:33N 53°49' E 006°49'1616.3
2016-May-24 04:33N 53°45' E 006°22'1616.2
2016-May-24 03:33N 53°40' E 005°56'1616.2
2016-May-24 02:33N 53°35' E 005°30'1616.0
2016-May-24 01:33N 53°30' E 005°05'1615.7
2016-May-24 00:33N 53°23' E 004°41'1616.0
2016-May-23 23:33N 53°09' E 004°28'1616.1
2016-May-23 22:33N 52°55' E 004°16'1615.9
2016-May-23 21:33N 52°42' E 004°01'1616.3
2016-May-23 20:33N 52°30' E 003°42'1716.6
2016-May-23 19:32N 52°18' E 003°23'5117.1
2016-May-23 16:33N 51°33' E 002°42'1211.8
2016-May-23 15:32N 51°22' E 002°49'1212.1
2016-May-23 14:33N 51°24' E 003°07'5 5.2
2016-May-23 13:33N 51°20' E 003°13'1 1.3
2016-May-23 12:33N 51°19' E 003°14'0 0.0
2016-May-23 11:30N 51°19' E 003°14'0 0.0
2016-May-23 10:33N 51°19' E 003°14'0 0.0
2016-May-23 09:33N 51°19' E 003°14'0 0.0
2016-May-23 08:33N 51°19' E 003°14'0 0.0
2016-May-23 07:30N 51°19' E 003°14'0 0.0
2016-May-23 06:33N 51°19' E 003°14'0 0.0
2016-May-23 05:33N 51°19' E 003°14'0 0.0
2016-May-23 04:30N 51°19' E 003°14'0 0.0
2016-May-23 03:33N 51°19' E 003°14'0 0.0
2016-May-23 02:33N 51°19' E 003°14'0 0.0
2016-May-23 01:33N 51°19' E 003°14'0 0.0
2016-May-23 00:33N 51°19' E 003°14'0 0.0
2016-May-22 23:33N 51°19' E 003°14'0 0.0
2016-May-22 22:27N 51°19' E 003°14'0 0.0
2016-May-22 21:33N 51°19' E 003°14'0 0.0
2016-May-22 20:33N 51°19' E 003°14'0 0.0
2016-May-22 19:33N 51°19' E 003°14'0 0.0
2016-May-22 18:33N 51°19' E 003°14'0 0.0
2016-May-22 17:33N 51°19' E 003°14'0 0.0
2016-May-22 16:33N 51°19' E 003°14'0 0.0
2016-May-22 15:33N 51°19' E 003°14'0 0.0
2016-May-22 14:33N 51°19' E 003°14'0 0.0
2016-May-22 13:33N 51°19' E 003°14'0 0.0
2016-May-22 12:33N 51°19' E 003°14'0 0.0
2016-May-22 11:33N 51°19' E 003°14'0 0.0
2016-May-22 10:33N 51°19' E 003°14'0 0.0
2016-May-22 09:33N 51°19' E 003°14'0 0.0
2016-May-22 08:33N 51°19' E 003°14'0 0.0
2016-May-22 07:33N 51°19' E 003°14'0 0.0
2016-May-22 06:33N 51°19' E 003°14'0 0.0
2016-May-22 05:33N 51°19' E 003°14'0 0.0
2016-May-22 04:30N 51°19' E 003°14'0 0.0
2016-May-22 03:33N 51°19' E 003°14'0 0.0
2016-May-22 02:30N 51°19' E 003°14'0 0.0
2016-May-22 01:33N 51°19' E 003°14'1 1.2
2016-May-22 00:33N 51°20' E 003°13'5 5.0
2016-May-21 23:34N 51°24' E 003°08'1414.3
2016-May-21 22:33N 51°22' E 002°45'1111.5
2016-May-21 21:34N 51°21' E 002°27'1313.2
2016-May-21 20:33N 51°14' E 002°09'1313.2
2016-May-21 19:33N 51°07' E 001°50'1212.5
2016-May-21 18:33N 50°59' E 001°36'1212.1
2016-May-21 17:34N 50°49' E 001°25'5012.5
2016-May-21 13:33N 50°23' E 000°18'1313.1
2016-May-21 12:33N 50°20' W 000°02'1313.3
2016-May-21 11:33N 50°16' W 000°22'1414.1
2016-May-21 10:34N 50°13' W 000°43'8617.1
2016-May-21 05:33N 49°50' W 002°52'1717.0
2016-May-21 04:34N 49°49' W 003°18'  
Track history (hours):
 
Tides and Currents Weather Stations Pressure Air Temp Water Temp Dewpoint Dewpoint Depression Visibility Wind Speed Wind Dir Waves Ship Positions

Fedora

Last reported at 2016-May-28 18:24 UTC. Time now 2016-May-29 21:11 UTC.
Position N 49°36' W 010°25'.

Length 228 m; draft 9.3 m.

Type: Cargo ship. MMSI: 266259000.

Date/timePositionNaut miles runAvg speedWind from/ knotsBaromVisibWave heightAir tempDewpointWater temp
2016-May-28 18:24N 49°36' W 010°25'1515.9
2016-May-28 17:26N 49°37' W 010°02'1415.6
2016-May-28 16:33N 49°38' W 009°40'1615.6
2016-May-28 15:33N 49°39' W 009°16'1615.9
2016-May-28 14:33N 49°40' W 008°52'1818.2
2016-May-28 13:33N 49°42' W 008°24'1918.8
2016-May-28 12:33N 49°41' W 007°55'1918.7
2016-May-28 11:33N 49°42' W 007°26'1818.4
2016-May-28 10:33N 49°43' W 006°57'1918.2
2016-May-28 09:32N 49°43' W 006°28'1718.0
2016-May-28 08:33N 49°45' W 006°02'1817.8
2016-May-28 07:32N 49°50' W 005°34'1614.8
2016-May-28 06:28N 49°53' W 005°11'1515.9
2016-May-28 05:33N 49°57' W 004°49'1918.8
2016-May-28 04:33N 50°01' W 004°20'1919.2
2016-May-28 03:33N 50°06' W 003°51'1919.3
2016-May-28 02:33N 50°10' W 003°22'1818.1
2016-May-28 01:33N 50°14' W 002°54'3816.5
2016-May-27 23:16N 50°24' W 001°57'2816.0
2016-May-27 21:33N 50°30' W 001°15'1413.9
2016-May-27 20:34N 50°39' W 000°59'1211.9
2016-May-27 19:33N 50°46' W 001°14'9 9.1
2016-May-27 18:34N 50°53' W 001°24'0 0.1
2016-May-27 16:27N 50°53' W 001°24'0 0.0
2016-May-27 15:24N 50°53' W 001°24'0 0.0
2016-May-27 14:33N 50°53' W 001°24'0 0.0
2016-May-27 12:24N 50°53' W 001°24'0 0.0
2016-May-27 11:30N 50°53' W 001°24'0 0.0
2016-May-27 09:27N 50°53' W 001°24'0 0.0
2016-May-27 07:09N 50°53' W 001°24'0 0.0
2016-May-27 06:31N 50°53' W 001°24'4 3.9
2016-May-27 05:34N 50°50' W 001°19'1111.4
2016-May-27 04:34N 50°44' W 001°04'10 9.7
2016-May-27 03:33N 50°37' W 000°54'6 6.4
2016-May-27 02:33N 50°37' W 000°44'6 6.1
2016-May-27 01:33N 50°36' W 000°35'6 6.1
2016-May-27 00:33N 50°34' W 000°26'7 7.1
2016-May-26 23:33N 50°33' W 000°15'6 6.3
2016-May-26 22:33N 50°31' W 000°05'1312.9
2016-May-26 21:33N 50°35' E 000°14'1414.2
2016-May-26 20:33N 50°39' E 000°36'1715.2
2016-May-26 19:28N 50°48' E 000°57'1414.9
2016-May-26 18:33N 50°57' E 001°14'1413.8
2016-May-26 17:33N 51°06' E 001°30'1212.4
2016-May-26 16:33N 51°14' E 001°45'1212.1
2016-May-26 15:33N 51°24' E 001°56'1312.8
2016-May-26 14:33N 51°34' E 002°09'1413.8
2016-May-26 13:33N 51°45' E 002°23'1514.8
2016-May-26 12:33N 51°56' E 002°39'2015.3
2016-May-26 11:13N 52°12' E 002°60'1015.3
2016-May-26 10:33N 52°20' E 003°09'1514.7
2016-May-26 09:33N 52°32' E 003°23'1413.7
2016-May-26 08:31N 52°43' E 003°38'1313.0
2016-May-26 07:31N 52°53' E 003°51'1312.4
2016-May-26 06:27N 53°03' E 004°07'3712.8
2016-May-26 03:33N 53°30' E 004°49'1515.0
2016-May-26 02:33N 53°35' E 005°12'1414.5
2016-May-26 01:34N 53°40' E 005°35'1413.7
2016-May-26 00:33N 53°44' E 005°57'1313.2
2016-May-25 23:33N 53°48' E 006°18'1312.5
2016-May-25 22:33N 53°51' E 006°39'1212.5
2016-May-25 21:33N 53°54' E 006°59'1313.1
2016-May-25 20:33N 53°58' E 007°21'1212.1
2016-May-25 19:32N 53°57' E 007°42'1312.9
2016-May-25 18:33N 53°51' E 008°01'1616.3
2016-May-25 17:33N 53°41' E 008°22'9 9.3
2016-May-25 16:33N 53°34' E 008°33'0 0.5
2016-May-25 15:33N 53°35' E 008°33'0 0.0
2016-May-25 14:33N 53°35' E 008°33'0 0.0
2016-May-25 13:33N 53°35' E 008°33'0 0.0
2016-May-25 12:33N 53°35' E 008°33'0 0.0
2016-May-25 11:33N 53°35' E 008°33'0 0.0
2016-May-25 10:33N 53°35' E 008°33'0 0.0
2016-May-25 09:33N 53°35' E 008°33'0 0.0
2016-May-25 08:33N 53°35' E 008°33'0 0.0
2016-May-25 07:33N 53°35' E 008°33'0 0.0
2016-May-25 06:33N 53°35' E 008°33'0 0.0
2016-May-25 05:33N 53°35' E 008°33'0 0.0
2016-May-25 04:33N 53°35' E 008°33'0 0.0
2016-May-25 03:33N 53°35' E 008°33'0 0.0
2016-May-25 02:33N 53°35' E 008°33'0 0.0
2016-May-25 01:33N 53°35' E 008°33'0 0.0
2016-May-25 00:33N 53°35' E 008°33'0 0.0
2016-May-24 23:33N 53°35' E 008°33'0 0.0
2016-May-24 22:33N 53°35' E 008°33'0 0.0
2016-May-24 21:33N 53°35' E 008°33'0 0.0
2016-May-24 20:33N 53°35' E 008°33'0 0.0
2016-May-24 19:33N 53°35' E 008°33'0 0.0
2016-May-24 18:33N 53°35' E 008°33'0 0.0
2016-May-24 17:33N 53°35' E 008°33'0 0.0
2016-May-24 16:33N 53°35' E 008°33'0 0.0
2016-May-24 15:33N 53°35' E 008°33'0 0.0
2016-May-24 14:31N 53°35' E 008°33'0 0.0
2016-May-24 13:31N 53°35' E 008°33'0 0.0
2016-May-24 12:31N 53°35' E 008°33'0 0.0
2016-May-24 11:31N 53°35' E 008°33'0 0.5
2016-May-24 10:33N 53°34' E 008°33'8 7.9
2016-May-24 09:33N 53°40' E 008°23'1716.9
2016-May-24 08:33N 53°51' E 008°02'1313.0
2016-May-24 07:33N 53°53' E 007°40'1414.1
2016-May-24 06:33N 53°52' E 007°16'1616.5
2016-May-24 05:33N 53°49' E 006°49'1616.3
2016-May-24 04:33N 53°45' E 006°22'1616.2
2016-May-24 03:33N 53°40' E 005°56'1616.2
2016-May-24 02:33N 53°35' E 005°30'1616.0
2016-May-24 01:33N 53°30' E 005°05'1615.7
2016-May-24 00:33N 53°23' E 004°41'1616.0
2016-May-23 23:33N 53°09' E 004°28'1616.1
2016-May-23 22:33N 52°55' E 004°16'1615.9
2016-May-23 21:33N 52°42' E 004°01'1616.3
2016-May-23 20:33N 52°30' E 003°42'1716.6
2016-May-23 19:32N 52°18' E 003°23'5117.1
2016-May-23 16:33N 51°33' E 002°42'1211.8
2016-May-23 15:32N 51°22' E 002°49'1212.1
2016-May-23 14:33N 51°24' E 003°07'5 5.2
2016-May-23 13:33N 51°20' E 003°13'1 1.3
2016-May-23 12:33N 51°19' E 003°14'0 0.0
2016-May-23 11:30N 51°19' E 003°14'0 0.0
2016-May-23 10:33N 51°19' E 003°14'0 0.0
2016-May-23 09:33N 51°19' E 003°14'0 0.0
2016-May-23 08:33N 51°19' E 003°14'0 0.0
2016-May-23 07:30N 51°19' E 003°14'0 0.0
2016-May-23 06:33N 51°19' E 003°14'0 0.0
2016-May-23 05:33N 51°19' E 003°14'0 0.0
2016-May-23 04:30N 51°19' E 003°14'0 0.0
2016-May-23 03:33N 51°19' E 003°14'0 0.0
2016-May-23 02:33N 51°19' E 003°14'0 0.0
2016-May-23 01:33N 51°19' E 003°14'0 0.0
2016-May-23 00:33N 51°19' E 003°14'0 0.0
2016-May-22 23:33N 51°19' E 003°14'0 0.0
2016-May-22 22:27N 51°19' E 003°14'0 0.0
2016-May-22 21:33N 51°19' E 003°14'0 0.0
2016-May-22 20:33N 51°19' E 003°14'0 0.0
2016-May-22 19:33N 51°19' E 003°14'0 0.0
2016-May-22 18:33N 51°19' E 003°14'0 0.0
2016-May-22 17:33N 51°19' E 003°14'0 0.0
2016-May-22 16:33N 51°19' E 003°14'0 0.0
2016-May-22 15:33N 51°19' E 003°14'0 0.0
2016-May-22 14:33N 51°19' E 003°14'0 0.0
2016-May-22 13:33N 51°19' E 003°14'0 0.0
2016-May-22 12:33N 51°19' E 003°14'0 0.0
2016-May-22 11:33N 51°19' E 003°14'0 0.0
2016-May-22 10:33N 51°19' E 003°14'0 0.0
2016-May-22 09:33N 51°19' E 003°14'0 0.0
2016-May-22 08:33N 51°19' E 003°14'0 0.0
2016-May-22 07:33N 51°19' E 003°14'0 0.0
2016-May-22 06:33N 51°19' E 003°14'0 0.0
2016-May-22 05:33N 51°19' E 003°14'0 0.0
2016-May-22 04:30N 51°19' E 003°14'0 0.0
2016-May-22 03:33N 51°19' E 003°14'0 0.0
2016-May-22 02:30N 51°19' E 003°14'0 0.0
2016-May-22 01:33N 51°19' E 003°14'1 1.2
2016-May-22 00:33N 51°20' E 003°13'5 5.0
2016-May-21 23:34N 51°24' E 003°08'1414.3
2016-May-21 22:33N 51°22' E 002°45'1111.5
2016-May-21 21:34N 51°21' E 002°27'1313.2
2016-May-21 20:33N 51°14' E 002°09'1313.2
2016-May-21 19:33N 51°07' E 001°50'1212.5
2016-May-21 18:33N 50°59' E 001°36'1212.1
2016-May-21 17:34N 50°49' E 001°25'5012.5
2016-May-21 13:33N 50°23' E 000°18'1313.1
2016-May-21 12:33N 50°20' W 000°02'1313.3
2016-May-21 11:33N 50°16' W 000°22'1414.1
2016-May-21 10:34N 50°13' W 000°43'8617.1
2016-May-21 05:33N 49°50' W 002°52'1717.0
2016-May-21 04:34N 49°49' W 003°18'  

Dump ship's entire track history